createdAt,value
2022-10-06T00:00:40.290Z,17.75
2022-10-06T00:03:08.571Z,17.76
2022-10-06T00:05:36.850Z,17.69
2022-10-06T00:08:08.977Z,17.68
2022-10-06T00:10:38.445Z,17.69
2022-10-06T00:13:08.441Z,17.71
2022-10-06T00:15:37.069Z,17.58
2022-10-06T00:18:05.756Z,17.62
2022-10-06T00:20:34.027Z,17.58
2022-10-06T00:23:02.268Z,17.44
2022-10-06T00:25:30.685Z,17.37
2022-10-06T00:27:59.040Z,17.21
2022-10-06T00:30:31.187Z,17.40
2022-10-06T00:33:01.539Z,17.07
2022-10-06T00:35:33.571Z,17.01
2022-10-06T00:38:02.630Z,17.01
2022-10-06T00:40:31.658Z,17.08
2022-10-06T00:43:01.787Z,17.09
2022-10-06T00:45:34.885Z,17.20
2022-10-06T00:48:06.235Z,17.17
2022-10-06T00:50:34.737Z,17.08
2022-10-06T00:53:03.508Z,17.12
2022-10-06T00:55:31.986Z,17.19
2022-10-06T00:58:00.568Z,17.23
2022-10-06T01:00:29.370Z,17.01
2022-10-06T01:03:02.671Z,17.14
2022-10-06T01:05:33.302Z,17.09
2022-10-06T01:08:01.313Z,17.21
2022-10-06T01:10:29.441Z,16.91
2022-10-06T01:12:58.206Z,16.98
2022-10-06T01:15:26.987Z,16.98
2022-10-06T01:17:56.805Z,16.82
2022-10-06T01:20:26.633Z,16.89
2022-10-06T01:22:58.625Z,16.88
2022-10-06T01:25:26.866Z,16.87
2022-10-06T01:27:56.364Z,16.91
2022-10-06T01:30:27.483Z,16.99
2022-10-06T01:32:55.758Z,16.95
2022-10-06T01:35:23.981Z,17.01
2022-10-06T01:37:52.173Z,16.99
2022-10-06T01:40:21.778Z,17.07
2022-10-06T01:42:50.012Z,17.04
2022-10-06T01:45:18.266Z,17.05
2022-10-06T01:47:46.467Z,17.11
2022-10-06T01:50:14.862Z,17.09
2022-10-06T01:52:43.071Z,17.02
2022-10-06T01:55:11.311Z,16.94
2022-10-06T01:57:41.380Z,17.02
2022-10-06T02:00:10.906Z,17.03
2022-10-06T02:02:39.163Z,16.95
2022-10-06T02:05:07.809Z,16.90
2022-10-06T02:07:36.255Z,16.63
2022-10-06T02:10:05.758Z,16.78
2022-10-06T02:12:35.218Z,16.76
2022-10-06T02:15:06.343Z,16.84
2022-10-06T02:17:34.564Z,16.68
2022-10-06T02:20:02.777Z,16.69
2022-10-06T02:22:31.341Z,16.66
2022-10-06T02:24:59.561Z,16.64
2022-10-06T02:27:27.832Z,16.73
2022-10-06T02:29:56.048Z,16.65
2022-10-06T02:32:25.702Z,16.80
2022-10-06T02:34:55.537Z,16.78
2022-10-06T02:37:24.159Z,16.91
2022-10-06T02:39:52.731Z,16.76
2022-10-06T02:42:20.968Z,16.66
2022-10-06T02:44:49.303Z,16.72
2022-10-06T02:47:17.507Z,16.69
2022-10-06T02:49:47.238Z,16.83
2022-10-06T02:52:15.966Z,16.55
2022-10-06T02:54:44.238Z,16.69
2022-10-06T02:57:12.472Z,16.82
2022-10-06T02:59:40.658Z,16.48
2022-10-06T03:02:08.922Z,16.41
2022-10-06T03:04:37.254Z,16.59
2022-10-06T03:07:06.843Z,16.67
2022-10-06T03:09:35.033Z,16.70
2022-10-06T03:12:03.242Z,16.63
2022-10-06T03:14:31.483Z,16.88
2022-10-06T03:16:59.691Z,17.07
2022-10-06T03:19:27.992Z,17.11
2022-10-06T03:21:56.236Z,17.14
2022-10-06T03:24:25.851Z,17.31
2022-10-06T03:26:54.145Z,17.07
2022-10-06T03:29:22.372Z,16.76
2022-10-06T03:31:50.687Z,16.97
2022-10-06T03:34:18.963Z,16.58
2022-10-06T03:36:47.279Z,16.88
2022-10-06T03:39:15.498Z,16.92
2022-10-06T03:41:45.157Z,17.33
2022-10-06T03:44:13.437Z,17.19
2022-10-06T03:46:41.799Z,16.83
2022-10-06T03:49:10.109Z,17.30
2022-10-06T03:51:40.039Z,17.38
2022-10-06T03:54:10.671Z,17.37
2022-10-06T03:56:40.447Z,16.78
2022-10-06T03:59:11.630Z,17.32
2022-10-06T04:01:41.929Z,17.33
2022-10-06T04:04:10.863Z,17.32
2022-10-06T04:06:40.582Z,17.35
2022-10-06T04:09:14.777Z,17.31
2022-10-06T04:11:44.881Z,17.35
2022-10-06T04:14:16.166Z,17.08
2022-10-06T04:16:45.743Z,17.28
2022-10-06T04:19:15.611Z,17.21
2022-10-06T04:21:45.514Z,17.36
2022-10-06T04:24:14.049Z,17.28
2022-10-06T04:26:45.032Z,17.26
2022-10-06T04:29:15.019Z,17.36
2022-10-06T04:31:43.593Z,17.32
2022-10-06T04:34:13.477Z,17.31
2022-10-06T04:36:42.846Z,17.22
2022-10-06T04:39:12.163Z,17.27
2022-10-06T04:41:41.922Z,17.26
2022-10-06T04:44:10.364Z,17.37
2022-10-06T04:46:44.490Z,17.41
2022-10-06T04:49:19.394Z,17.24
2022-10-06T04:51:48.782Z,16.71
2022-10-06T04:54:17.153Z,16.95
2022-10-06T04:56:45.402Z,17.24
2022-10-06T04:59:13.600Z,17.33
2022-10-06T05:01:43.406Z,17.37
2022-10-06T05:04:11.868Z,17.17
2022-10-06T05:06:41.668Z,17.24
2022-10-06T05:09:11.415Z,17.19
2022-10-06T05:11:39.654Z,17.15
2022-10-06T05:14:09.202Z,17.03
2022-10-06T05:16:38.373Z,17.06
2022-10-06T05:19:08.248Z,17.10
2022-10-06T05:21:37.165Z,17.05
2022-10-06T05:24:05.722Z,17.01
2022-10-06T05:26:35.636Z,17.03
2022-10-06T05:29:04.618Z,16.97
2022-10-06T05:31:35.147Z,16.91
2022-10-06T05:34:03.260Z,17.02
2022-10-06T05:36:34.027Z,16.74
2022-10-06T05:39:02.778Z,16.79
2022-10-06T05:41:33.041Z,16.85
2022-10-06T05:44:01.553Z,16.89
2022-10-06T05:46:30.874Z,16.93
2022-10-06T05:49:00.773Z,16.92
2022-10-06T05:51:32.376Z,16.95
2022-10-06T05:54:01.097Z,16.86
2022-10-06T05:56:30.248Z,16.97
2022-10-06T05:58:59.543Z,17.05
2022-10-06T06:01:29.267Z,17.22
2022-10-06T06:03:59.525Z,17.31
2022-10-06T06:06:29.459Z,17.29
2022-10-06T06:09:00.698Z,17.37
2022-10-06T06:11:31.331Z,17.58
2022-10-06T06:13:59.837Z,17.87
2022-10-06T06:16:28.877Z,17.87
2022-10-06T06:18:57.443Z,17.97
2022-10-06T06:21:26.351Z,18.09
2022-10-06T06:23:54.806Z,18.21
2022-10-06T06:26:25.546Z,18.41
2022-10-06T06:28:55.094Z,18.54
2022-10-06T06:31:26.642Z,18.74
2022-10-06T06:33:56.382Z,18.84
2022-10-06T06:36:26.130Z,18.53
2022-10-06T06:38:56.490Z,18.95
2022-10-06T06:41:28.191Z,18.70
2022-10-06T06:43:56.820Z,18.90
2022-10-06T06:46:26.736Z,19.24
2022-10-06T06:48:56.102Z,19.59
2022-10-06T06:51:24.420Z,19.83
2022-10-06T06:53:53.139Z,19.95
2022-10-06T06:56:22.324Z,20.17
2022-10-06T06:58:51.970Z,19.94
2022-10-06T07:01:21.805Z,20.30
2022-10-06T07:03:58.337Z,20.25
2022-10-06T07:06:29.206Z,20.02
2022-10-06T07:08:58.437Z,19.07
2022-10-06T07:11:28.218Z,19.26
2022-10-06T07:14:01.405Z,19.27
2022-10-06T07:16:48.051Z,19.84
2022-10-06T07:19:35.110Z,19.62
2022-10-06T07:22:22.605Z,19.35
2022-10-06T07:25:11.776Z,19.69
2022-10-06T07:27:43.035Z,20.60
2022-10-06T07:30:19.104Z,20.69
2022-10-06T07:32:48.079Z,20.47
2022-10-06T07:35:17.167Z,20.36
2022-10-06T07:37:45.691Z,20.08
2022-10-06T07:40:14.875Z,21.35
2022-10-06T07:42:49.213Z,21.26
2022-10-06T07:45:38.101Z,22.07
2022-10-06T07:48:08.110Z,22.11
2022-10-06T07:50:39.001Z,22.14
2022-10-06T07:53:08.875Z,21.91
2022-10-06T07:55:39.975Z,21.91
2022-10-06T07:58:12.715Z,22.28
2022-10-06T08:00:42.662Z,22.64
2022-10-06T08:03:12.192Z,22.37
2022-10-06T08:05:40.525Z,21.87
2022-10-06T08:08:08.721Z,22.20
2022-10-06T08:10:36.976Z,22.06
2022-10-06T08:13:06.419Z,22.18
2022-10-06T08:15:34.874Z,22.21
2022-10-06T08:18:16.556Z,22.00
2022-10-06T08:20:54.367Z,22.80
2022-10-06T08:23:22.559Z,23.11
2022-10-06T08:25:51.887Z,23.21
2022-10-06T08:28:24.445Z,23.89
2022-10-06T08:30:52.801Z,22.91
2022-10-06T08:33:22.578Z,24.03
2022-10-06T08:35:51.612Z,23.15
2022-10-06T08:38:21.169Z,23.72
2022-10-06T08:40:49.465Z,24.20
2022-10-06T08:43:20.868Z,23.92
2022-10-06T08:45:49.372Z,24.99
2022-10-06T08:48:20.079Z,24.24
2022-10-06T08:50:54.879Z,24.45
2022-10-06T08:53:30.351Z,24.60
2022-10-06T08:56:02.861Z,25.22
2022-10-06T08:58:39.911Z,24.30
2022-10-06T09:01:15.929Z,25.18
2022-10-06T09:03:48.363Z,25.99
2022-10-06T09:06:26.836Z,26.16
2022-10-06T09:08:59.138Z,26.24
2022-10-06T09:11:40.200Z,26.49
2022-10-06T09:14:15.144Z,27.31
2022-10-06T09:16:47.376Z,27.05
2022-10-06T09:19:18.167Z,27.16
2022-10-06T09:21:51.044Z,27.07
2022-10-06T09:24:36.266Z,27.52
2022-10-06T09:27:16.131Z,27.34
2022-10-06T09:29:44.515Z,27.61
2022-10-06T09:32:13.548Z,27.66
2022-10-06T09:34:45.633Z,27.26
2022-10-06T09:37:15.506Z,28.01
2022-10-06T09:39:45.708Z,27.62
2022-10-06T09:42:17.223Z,28.34
2022-10-06T09:44:54.127Z,28.46
2022-10-06T09:47:35.930Z,28.42
2022-10-06T09:50:16.046Z,28.42
2022-10-06T09:53:03.635Z,28.19
2022-10-06T09:55:35.190Z,28.11
2022-10-06T09:58:04.484Z,28.00
2022-10-06T10:00:35.680Z,28.71
2022-10-06T10:03:05.842Z,28.56
2022-10-06T10:05:35.935Z,28.64
2022-10-06T10:08:10.031Z,27.68
2022-10-06T10:10:38.601Z,27.87
2022-10-06T10:13:20.616Z,27.74
2022-10-06T10:15:54.714Z,28.26
2022-10-06T10:18:26.745Z,28.07
2022-10-06T10:20:58.666Z,28.20
2022-10-06T10:23:32.067Z,28.78
2022-10-06T10:26:22.445Z,28.71
2022-10-06T10:29:07.994Z,28.65
2022-10-06T10:31:48.085Z,28.89
2022-10-06T10:34:25.877Z,29.36
2022-10-06T10:36:56.892Z,29.29
2022-10-06T10:39:31.647Z,29.23
2022-10-06T10:42:02.945Z,29.09
2022-10-06T10:44:34.877Z,28.23
2022-10-06T10:47:09.723Z,26.59
2022-10-06T10:49:38.404Z,26.93
2022-10-06T10:52:11.290Z,27.98
2022-10-06T10:54:46.090Z,28.33
2022-10-06T10:57:17.425Z,28.53
2022-10-06T10:59:55.022Z,28.58
2022-10-06T11:02:23.945Z,28.78
2022-10-06T11:04:54.575Z,28.14
2022-10-06T11:07:26.483Z,28.60
2022-10-06T11:10:00.064Z,27.39
2022-10-06T11:12:40.240Z,27.48
2022-10-06T11:15:14.947Z,27.92
2022-10-06T11:17:50.222Z,27.78
2022-10-06T11:20:40.291Z,28.14
2022-10-06T11:23:25.873Z,28.85
2022-10-06T11:26:02.406Z,28.60
2022-10-06T11:28:33.910Z,29.90
2022-10-06T11:31:05.049Z,29.99
2022-10-06T11:33:37.542Z,30.16
2022-10-06T11:36:09.560Z,30.30
2022-10-06T11:38:41.772Z,30.79
2022-10-06T11:41:17.244Z,30.45
2022-10-06T11:43:51.397Z,29.35
2022-10-06T11:46:32.089Z,29.15
2022-10-06T11:49:53.327Z,29.50
2022-10-06T11:52:43.958Z,28.94
2022-10-06T11:55:17.834Z,29.36
2022-10-06T11:58:37.376Z,28.72
2022-10-06T12:00:58.278Z,29.50
2022-10-06T12:03:50.306Z,29.70
2022-10-06T12:07:04.195Z,29.56
2022-10-06T12:09:51.745Z,29.94
2022-10-06T12:13:06.090Z,29.62
2022-10-06T12:18:45.464Z,29.81
2022-10-06T12:21:35.805Z,30.53
2022-10-06T12:24:15.646Z,30.11
2022-10-06T12:26:54.035Z,30.57
2022-10-06T12:29:39.057Z,31.02
2022-10-06T12:32:18.080Z,30.28
2022-10-06T12:35:03.299Z,29.83
2022-10-06T12:37:38.558Z,29.58
2022-10-06T12:40:46.500Z,29.75
2022-10-06T12:43:59.224Z,29.48
2022-10-06T12:46:37.266Z,29.61
2022-10-06T12:49:43.717Z,28.84
2022-10-06T12:52:28.823Z,29.05
2022-10-06T12:55:04.800Z,28.84
2022-10-06T12:57:46.584Z,28.58
2022-10-06T13:00:36.190Z,29.33
2022-10-06T13:03:06.533Z,28.51
2022-10-06T13:05:35.717Z,29.27
2022-10-06T13:08:06.939Z,29.13
2022-10-06T13:10:35.351Z,29.39
2022-10-06T13:13:03.802Z,29.26
2022-10-06T13:15:34.513Z,29.59
2022-10-06T13:18:11.619Z,29.89
2022-10-06T13:20:41.754Z,29.30
2022-10-06T13:23:23.410Z,29.16
2022-10-06T13:25:57.807Z,29.44
2022-10-06T13:28:29.198Z,29.41
2022-10-06T13:30:58.904Z,29.18
2022-10-06T13:33:30.386Z,29.90
2022-10-06T13:35:59.019Z,29.02
2022-10-06T13:38:31.845Z,28.84
2022-10-06T13:41:20.906Z,28.70
2022-10-06T13:43:52.160Z,28.47
2022-10-06T13:46:22.063Z,28.68
2022-10-06T13:48:52.355Z,28.96
2022-10-06T13:51:21.259Z,29.06
2022-10-06T13:53:51.930Z,29.16
2022-10-06T13:56:38.143Z,29.33
2022-10-06T13:59:23.063Z,28.82
2022-10-06T14:01:51.388Z,29.19
2022-10-06T14:04:19.759Z,29.10
2022-10-06T14:06:50.706Z,28.73
2022-10-06T14:09:24.885Z,29.57
2022-10-06T14:11:54.277Z,28.85
2022-10-06T14:14:22.492Z,28.35
2022-10-06T14:16:52.676Z,29.01
2022-10-06T14:19:36.061Z,28.85
2022-10-06T14:22:05.442Z,28.89
2022-10-06T14:24:37.385Z,29.12
2022-10-06T14:27:07.041Z,29.48
2022-10-06T14:29:37.839Z,29.55
2022-10-06T14:32:15.181Z,28.79
2022-10-06T14:34:43.639Z,28.77
2022-10-06T14:37:15.242Z,28.75
2022-10-06T14:39:46.442Z,29.01
2022-10-06T14:42:15.572Z,29.21
2022-10-06T14:44:44.788Z,29.56
2022-10-06T14:47:13.943Z,29.34
2022-10-06T14:49:42.280Z,29.35
2022-10-06T14:52:11.264Z,29.25
2022-10-06T14:54:39.827Z,28.86
2022-10-06T14:57:09.653Z,28.90
2022-10-06T14:59:37.910Z,28.17
2022-10-06T15:02:06.106Z,28.45
2022-10-06T15:04:34.320Z,28.83
2022-10-06T15:07:20.204Z,28.67
2022-10-06T15:09:48.573Z,28.74
2022-10-06T15:12:18.104Z,28.94
2022-10-06T15:14:46.387Z,28.79
2022-10-06T15:17:14.601Z,28.92
2022-10-06T15:19:42.824Z,28.52
2022-10-06T15:22:11.045Z,28.48
2022-10-06T15:24:39.225Z,28.40
2022-10-06T15:27:25.437Z,28.30
2022-10-06T15:29:56.087Z,28.32
2022-10-06T15:32:24.309Z,28.29
2022-10-06T15:34:53.005Z,28.43
2022-10-06T15:37:21.271Z,28.24
2022-10-06T15:39:49.493Z,28.23
2022-10-06T15:42:21.803Z,28.17
2022-10-06T15:44:50.116Z,28.15
2022-10-06T15:47:19.698Z,28.30
2022-10-06T15:49:49.222Z,28.14
2022-10-06T15:52:17.597Z,27.85
2022-10-06T15:54:46.486Z,27.47
2022-10-06T15:57:20.420Z,27.49
2022-10-06T15:59:49.680Z,27.70
2022-10-06T16:02:20.459Z,27.80
2022-10-06T16:05:16.258Z,27.24
2022-10-06T16:07:44.482Z,27.33
2022-10-06T16:10:13.643Z,27.02
2022-10-06T16:12:42.087Z,26.80
2022-10-06T16:15:11.206Z,26.91
2022-10-06T16:17:41.276Z,26.78
2022-10-06T16:20:11.517Z,26.78
2022-10-06T16:22:40.170Z,26.35
2022-10-06T16:25:09.488Z,26.07
2022-10-06T16:27:37.707Z,26.32
2022-10-06T16:30:07.311Z,26.05
2022-10-06T16:32:36.075Z,25.92
2022-10-06T16:35:06.832Z,25.81
2022-10-06T16:37:34.897Z,25.77
2022-10-06T16:40:03.056Z,25.69
2022-10-06T16:42:31.386Z,25.46
2022-10-06T16:44:59.618Z,25.46
2022-10-06T16:47:27.907Z,25.41
2022-10-06T16:49:56.143Z,25.33
2022-10-06T16:52:25.777Z,25.26
2022-10-06T16:54:54.122Z,25.14
2022-10-06T16:57:22.424Z,25.14
2022-10-06T16:59:50.758Z,24.99
2022-10-06T17:02:19.025Z,24.80
2022-10-06T17:04:47.230Z,24.71
2022-10-06T17:07:15.479Z,24.73
2022-10-06T17:09:56.028Z,24.74
2022-10-06T17:12:33.174Z,24.58
2022-10-06T17:15:01.483Z,24.33
2022-10-06T17:17:29.743Z,24.33
2022-10-06T17:19:57.920Z,24.27
2022-10-06T17:22:26.418Z,24.25
2022-10-06T17:24:56.064Z,24.22
2022-10-06T17:27:28.538Z,23.84
2022-10-06T17:29:56.801Z,23.80
2022-10-06T17:32:25.817Z,23.91
2022-10-06T17:34:54.086Z,23.82
2022-10-06T17:37:22.640Z,23.57
2022-10-06T17:39:50.905Z,23.52
2022-10-06T17:42:20.541Z,23.80
2022-10-06T17:44:48.726Z,23.49
2022-10-06T17:47:16.985Z,23.35
2022-10-06T17:49:45.583Z,23.33
2022-10-06T17:52:13.853Z,23.43
2022-10-06T17:54:44.701Z,23.41
2022-10-06T17:57:13.260Z,23.28
2022-10-06T17:59:42.801Z,23.28
2022-10-06T18:02:13.461Z,22.91
2022-10-06T18:04:41.725Z,22.74
2022-10-06T18:07:10.086Z,22.82
2022-10-06T18:09:38.303Z,22.77
2022-10-06T18:12:07.640Z,22.88
2022-10-06T18:14:35.805Z,22.82
2022-10-06T18:17:06.457Z,22.95
2022-10-06T18:19:35.903Z,22.84
2022-10-06T18:22:09.883Z,22.79
2022-10-06T18:24:39.057Z,22.78
2022-10-06T18:27:08.235Z,22.62
2022-10-06T18:29:39.075Z,22.84
2022-10-06T18:33:10.842Z,22.79
2022-10-06T18:37:45.414Z,22.43
2022-10-06T18:40:14.717Z,22.71
2022-10-06T18:42:42.913Z,21.98
2022-10-06T18:45:30.834Z,22.58
2022-10-06T18:48:19.516Z,22.49
2022-10-06T18:50:59.837Z,22.43
2022-10-06T18:53:28.085Z,22.21
2022-10-06T18:55:57.450Z,22.03
2022-10-06T18:58:25.663Z,21.80
2022-10-06T19:00:54.624Z,21.79
2022-10-06T19:03:26.740Z,21.92
2022-10-06T19:05:54.921Z,21.85
2022-10-06T19:08:23.064Z,21.74
2022-10-06T19:11:05.117Z,21.31
2022-10-06T19:13:33.456Z,21.54
2022-10-06T19:16:02.631Z,21.55
2022-10-06T19:18:37.117Z,21.73
2022-10-06T19:21:09.509Z,21.58
2022-10-06T19:23:38.993Z,21.45
2022-10-06T19:26:08.912Z,21.47
2022-10-06T19:28:37.567Z,21.37
2022-10-06T19:31:09.036Z,21.41
2022-10-06T19:33:40.030Z,21.48
2022-10-06T19:36:09.653Z,21.30
2022-10-06T19:38:40.276Z,21.30
2022-10-06T19:41:25.538Z,21.48
2022-10-06T19:43:54.454Z,21.24
2022-10-06T19:46:22.716Z,21.16
2022-10-06T19:48:56.528Z,21.26
2022-10-06T19:51:25.511Z,21.17
2022-10-06T19:53:53.705Z,21.01
2022-10-06T19:56:25.173Z,20.79
2022-10-06T19:58:53.778Z,20.68
2022-10-06T20:01:22.120Z,20.71
2022-10-06T20:03:50.456Z,20.51
2022-10-06T20:06:20.595Z,20.62
2022-10-06T20:08:48.873Z,20.62
2022-10-06T20:11:18.633Z,20.73
2022-10-06T20:13:47.984Z,20.51
2022-10-06T20:16:18.611Z,20.63
2022-10-06T20:18:48.899Z,20.64
2022-10-06T20:21:21.086Z,20.60
2022-10-06T20:23:49.909Z,20.37
2022-10-06T20:26:19.646Z,20.38
2022-10-06T20:28:48.783Z,20.36
2022-10-06T20:31:19.041Z,20.35
2022-10-06T20:33:50.259Z,20.29
2022-10-06T20:36:20.310Z,20.29
2022-10-06T20:39:06.332Z,20.13
2022-10-06T20:41:34.651Z,20.12
2022-10-06T20:44:03.480Z,20.15
2022-10-06T20:46:34.238Z,20.18
2022-10-06T20:49:04.455Z,20.17
2022-10-06T20:51:36.234Z,20.13
2022-10-06T20:54:05.455Z,20.09
2022-10-06T20:56:34.780Z,19.96
2022-10-06T20:59:03.104Z,19.60
2022-10-06T21:01:31.344Z,19.74
2022-10-06T21:03:59.562Z,19.76
2022-10-06T21:06:28.075Z,19.77
2022-10-06T21:08:58.548Z,19.81
2022-10-06T21:11:27.125Z,19.39
2022-10-06T21:13:57.520Z,19.32
2022-10-06T21:16:27.279Z,19.13
2022-10-06T21:18:55.477Z,19.32
2022-10-06T21:21:23.649Z,19.43
2022-10-06T21:23:51.881Z,19.43
2022-10-06T21:26:22.734Z,19.44
2022-10-06T21:28:52.346Z,19.35
2022-10-06T21:31:22.010Z,19.35
2022-10-06T21:33:50.560Z,19.30
2022-10-06T21:36:20.400Z,19.32
2022-10-06T21:38:49.967Z,19.29
2022-10-06T21:41:34.120Z,19.35
2022-10-06T21:44:05.119Z,19.42
2022-10-06T21:46:34.555Z,19.39
2022-10-06T21:49:04.060Z,19.20
2022-10-06T21:51:32.822Z,19.49
2022-10-06T21:54:01.868Z,19.60
2022-10-06T21:56:31.648Z,19.66
2022-10-06T21:59:00.126Z,19.71
2022-10-06T22:01:31.567Z,19.82
2022-10-06T22:04:01.052Z,19.86
2022-10-06T22:06:30.500Z,19.91
2022-10-06T22:08:59.659Z,19.97
2022-10-06T22:11:35.626Z,19.76
2022-10-06T22:14:06.173Z,19.87
2022-10-06T22:16:36.128Z,19.82
2022-10-06T22:19:05.976Z,19.98
2022-10-06T22:21:35.693Z,20.07
2022-10-06T22:24:05.103Z,20.12
2022-10-06T22:26:34.679Z,20.09
2022-10-06T22:29:02.851Z,20.15
2022-10-06T22:31:31.353Z,20.13
2022-10-06T22:34:02.029Z,20.22
2022-10-06T22:36:30.220Z,20.19
2022-10-06T22:38:58.567Z,20.12
2022-10-06T22:41:26.851Z,19.91
2022-10-06T22:43:57.475Z,20.23
2022-10-06T22:46:26.312Z,20.23
2022-10-06T22:48:54.947Z,20.04
2022-10-06T22:51:24.710Z,20.14
2022-10-06T22:53:57.596Z,20.34
2022-10-06T22:56:27.140Z,20.38
2022-10-06T22:58:55.345Z,20.34
2022-10-06T23:01:23.525Z,19.97
2022-10-06T23:03:51.728Z,20.18
2022-10-06T23:06:19.906Z,20.32
2022-10-06T23:08:49.421Z,20.46
2022-10-06T23:11:19.080Z,20.21
2022-10-06T23:13:48.361Z,20.46
2022-10-06T23:16:18.490Z,20.37
2022-10-06T23:18:46.828Z,20.23
2022-10-06T23:21:19.341Z,20.52
2022-10-06T23:23:49.682Z,20.55
2022-10-06T23:26:18.844Z,20.44
2022-10-06T23:28:51.018Z,20.41
2022-10-06T23:31:19.304Z,20.45
2022-10-06T23:33:47.654Z,20.23
2022-10-06T23:36:15.815Z,20.31
2022-10-06T23:38:44.529Z,20.32
2022-10-06T23:41:14.597Z,20.46
2022-10-06T23:43:42.739Z,20.26
2022-10-06T23:46:11.241Z,20.16
2022-10-06T23:48:39.422Z,20.41
2022-10-06T23:51:09.024Z,20.37
2022-10-06T23:53:37.285Z,20.32
2022-10-06T23:56:05.909Z,20.27
2022-10-06T23:58:35.418Z,19.94
